Time;durP1;ratioP1;P1;durP2;ratioP2;P2;SDS_P1;SDS_P2;PMS_P1;PMS_P2;Temp;Humidity;BMP_temperature;BMP_pressure;BME280_temperature;BME280_humidity;BME280_pressure;Samples;Min_cycle;Max_cycle;Signal;HPM_P1;HPM_P2
2022/02/09 00:02:06;;;;;;;22.20;10.30;;;;;2.20;98076.80;;;;111047;1249;41149;-58
2022/02/09 00:04:55;;;;;;;28.10;12.00;;;;;2.18;98083.00;;;;110875;1250;41601;-55
2022/02/09 00:07:58;;;;;;;28.50;12.80;;;;;2.10;98087.80;;;;111009;1248;41502;-58
2022/02/09 00:10:15;;;;;;;24.60;11.20;;;;;2.10;98088.20;;;;110900;1247;41274;-56
2022/02/09 00:13:06;;;;;;;26.40;12.10;;;;;2.10;98093.80;;;;110818;1247;41710;-57
2022/02/09 00:15:49;;;;;;;30.20;11.40;;;;;2.06;98100.80;;;;111052;1248;41923;-57
2022/02/09 00:21:09;;;;;;;28.40;11.30;;;;;2.00;98115.40;;;;111092;1247;41148;-59
2022/02/09 00:24:38;;;;;;;25.40;9.20;;;;;2.00;98113.40;;;;111066;1247;41151;-59
2022/02/09 00:29:41;;;;;;;19.80;8.10;;;;;2.00;98105.80;;;;110893;1247;41267;-58
2022/02/09 00:42:27;;;;;;;17.30;6.70;;;;;2.00;98106.80;;;;110948;1248;41209;-57
2022/02/09 00:59:25;;;;;;;14.90;6.70;;;;;2.02;98100.00;;;;111045;1248;41140;-58
2022/02/09 01:38:50;;;;;;;20.00;8.00;;;;;2.10;98075.20;;;;111159;1248;41152;-58
2022/02/09 01:44:35;;;;;;;20.10;9.70;;;;;2.08;98090.20;;;;110892;1248;41160;-61
2022/02/09 01:55:32;;;;;;;19.90;9.10;;;;;2.10;98071.40;;;;111122;1247;41999;-58
2022/02/09 01:58:02;;;;;;;20.70;8.40;;;;;2.00;98070.60;;;;111097;1247;41268;-59
2022/02/09 02:00:32;;;;;;;19.30;9.40;;;;;2.00;98072.00;;;;111058;1248;41264;-58
2022/02/09 02:03:02;;;;;;;21.80;9.50;;;;;2.00;98074.00;;;;111090;1247;41153;-57
2022/02/09 02:05:35;;;;;;;20.30;8.70;;;;;2.00;98070.00;;;;111076;1247;41612;-59
2022/02/09 02:08:08;;;;;;;18.60;8.50;;;;;2.00;98069.80;;;;110912;1248;41147;-57
2022/02/09 02:10:51;;;;;;;21.00;9.10;;;;;1.98;98069.80;;;;111023;1247;41645;-59
2022/02/09 02:18:47;;;;;;;20.80;9.40;;;;;1.90;98073.80;;;;111158;1247;41180;-57
2022/02/09 02:21:37;;;;;;;22.80;9.80;;;;;1.90;98063.00;;;;111052;1249;42387;-58
2022/02/09 02:39:55;;;;;;;15.50;7.30;;;;;2.00;98075.80;;;;111089;1247;41776;-58
2022/02/09 02:59:26;;;;;;;19.40;7.70;;;;;1.90;98089.80;;;;111087;1246;41397;-57
2022/02/09 03:12:43;;;;;;;17.20;7.00;;;;;1.90;98100.80;;;;111060;1248;41166;-57
2022/02/09 03:15:29;;;;;;;18.30;7.80;;;;;1.90;98103.40;;;;111044;1248;41273;-57
2022/02/09 03:56:13;;;;;;;20.60;8.90;;;;;1.90;98126.00;;;;111125;1246;41156;-56
2022/02/09 03:58:42;;;;;;;19.80;8.30;;;;;1.90;98134.20;;;;110903;1249;41717;-57
2022/02/09 04:01:12;;;;;;;20.70;8.30;;;;;1.92;98144.80;;;;110962;1247;41954;-57
2022/02/09 04:03:43;;;;;;;17.70;7.90;;;;;2.00;98137.60;;;;111109;1246;41527;-58
2022/02/09 04:06:14;;;;;;;15.40;7.70;;;;;2.00;98148.20;;;;111070;1247;41127;-59
2022/02/09 04:08:51;;;;;;;15.50;7.20;;;;;2.00;98136.80;;;;111102;1246;41156;-58
2022/02/09 04:11:27;;;;;;;14.50;6.90;;;;;2.00;98140.40;;;;110973;1247;41289;-58
2022/02/09 04:14:16;;;;;;;16.00;6.80;;;;;2.10;98136.80;;;;111026;1248;42253;-57
2022/02/09 04:19:41;;;;;;;13.70;6.50;;;;;2.10;98130.80;;;;111002;1248;41263;-59
2022/02/09 04:44:10;;;;;;;14.60;6.80;;;;;2.00;98146.20;;;;111099;1247;41270;-57
2022/02/09 04:47:49;;;;;;;20.40;7.60;;;;;2.00;98146.60;;;;111092;1247;41402;-56
2022/02/09 04:52:59;;;;;;;18.30;8.20;;;;;2.06;98147.80;;;;111085;1246;41244;-59
2022/02/09 04:55:44;;;;;;;17.20;7.50;;;;;2.00;98157.60;;;;111020;1248;41173;-57
2022/02/09 05:26:06;;;;;;;15.70;8.00;;;;;2.10;98182.80;;;;110982;1246;41229;-57
2022/02/09 05:28:37;;;;;;;17.50;8.70;;;;;2.10;98184.20;;;;111041;1246;42379;-57
2022/02/09 05:31:08;;;;;;;32.70;12.40;;;;;2.10;98194.80;;;;111013;1246;42192;-58
2022/02/09 05:33:39;;;;;;;29.90;12.50;;;;;2.10;98198.20;;;;110968;1249;41155;-58
2022/02/09 05:36:08;;;;;;;33.70;12.00;;;;;2.10;98201.80;;;;111060;1248;41641;-57
2022/02/09 05:38:39;;;;;;;25.70;10.30;;;;;2.10;98203.80;;;;111049;1248;42465;-57
2022/02/09 05:41:09;;;;;;;26.40;10.30;;;;;2.10;98215.60;;;;111048;1247;41139;-57
2022/02/09 05:43:38;;;;;;;26.30;10.40;;;;;2.10;98211.80;;;;111014;1248;41940;-57
2022/02/09 05:51:34;;;;;;;23.40;10.80;;;;;2.20;98208.60;;;;110923;1248;41440;-58
2022/02/09 05:59:41;;;;;;;26.70;13.40;;;;;2.20;98221.00;;;;111076;1247;41136;-59
2022/02/09 06:02:10;;;;;;;24.70;12.20;;;;;2.20;98239.40;;;;110922;1249;41271;-58
2022/02/09 06:04:40;;;;;;;25.20;12.20;;;;;2.20;98247.20;;;;111008;1248;41255;-58
2022/02/09 06:07:10;;;;;;;21.20;10.90;;;;;2.20;98251.20;;;;111112;1247;41459;-59
2022/02/09 06:09:40;;;;;;;19.80;9.30;;;;;2.20;98254.60;;;;111055;1247;41152;-60
2022/02/09 06:20:26;;;;;;;24.30;11.90;;;;;2.10;98236.80;;;;111013;1248;41273;-57
2022/02/09 06:23:07;;;;;;;26.50;13.00;;;;;1.90;98253.80;;;;111081;1247;41604;-59
2022/02/09 06:25:41;;;;;;;26.50;11.80;;;;;2.00;98258.40;;;;111015;1247;41254;-58
2022/02/09 06:28:10;;;;;;;28.10;12.50;;;;;2.00;98249.00;;;;111020;1247;41743;-57
2022/02/09 06:30:40;;;;;;;28.00;12.70;;;;;1.90;98244.20;;;;111016;1246;41270;-58
2022/02/09 06:33:09;;;;;;;30.00;13.70;;;;;1.98;98250.60;;;;111071;1247;41217;-59
2022/02/09 06:35:38;;;;;;;28.70;14.00;;;;;2.00;98255.20;;;;110992;1248;41173;-58
2022/02/09 06:38:07;;;;;;;29.20;13.90;;;;;2.00;98247.20;;;;111028;1248;41387;-59
2022/02/09 06:40:42;;;;;;;34.80;16.30;;;;;2.10;98242.80;;;;111032;1247;41397;-60
2022/02/09 06:43:13;;;;;;;30.10;15.10;;;;;2.10;98254.00;;;;111080;1247;41318;-60
2022/02/09 06:45:43;;;;;;;32.00;16.00;;;;;2.10;98260.80;;;;111038;1246;42543;-58
2022/02/09 06:48:19;;;;;;;34.10;15.10;;;;;2.10;98265.20;;;;111074;1247;41972;-57
2022/02/09 06:50:54;;;;;;;22.60;11.30;;;;;2.08;98266.80;;;;111004;1249;41150;-59
2022/02/09 06:55:59;;;;;;;17.90;8.40;;;;;2.10;98272.00;;;;111026;1247;41139;-58
2022/02/09 07:01:04;;;;;;;17.60;7.10;;;;;2.12;98275.00;;;;111036;1247;41152;-58
2022/02/09 07:03:34;;;;;;;;;;;;;2.10;98283.00;;;;111067;1247;41743;-59
2022/02/09 07:06:04;;;;;;;15.80;7.60;;;;;2.10;98265.80;;;;111023;1246;41567;-59
2022/02/09 07:08:34;;;;;;;19.20;7.40;;;;;2.10;98283.20;;;;111108;1247;41174;-61
2022/02/09 07:11:03;;;;;;;16.60;7.10;;;;;2.18;98300.60;;;;111020;1248;41576;-59
2022/02/09 07:13:32;;;;;;;17.00;7.10;;;;;2.20;98303.60;;;;111070;1247;41615;-58
2022/02/09 07:16:04;;;;;;;20.00;7.50;;;;;2.20;98301.60;;;;111007;1248;41302;-58
2022/02/09 07:18:36;;;;;;;16.50;7.50;;;;;2.30;98301.00;;;;111084;1248;41127;-59
2022/02/09 07:21:10;;;;;;;17.80;7.00;;;;;2.30;98305.20;;;;111029;1247;41210;-59
2022/02/09 07:23:44;;;;;;;19.40;8.20;;;;;2.30;98306.20;;;;110996;1248;41621;-59
2022/02/09 07:29:05;;;;;;;18.60;7.50;;;;;2.40;98304.40;;;;110947;1249;41418;-59
2022/02/09 07:31:35;;;;;;;21.70;8.80;;;;;2.40;98304.60;;;;111032;1248;41155;-59
2022/02/09 07:34:06;;;;;;;19.80;8.50;;;;;2.50;98307.00;;;;111003;1249;41217;-59
2022/02/09 07:36:37;;;;;;;25.80;10.60;;;;;2.50;98297.40;;;;111052;1247;41164;-59
2022/02/09 07:39:07;;;;;;;;;;;;;2.52;98302.40;;;;110943;1250;41292;-58
2022/02/09 07:41:40;;;;;;;37.90;16.30;;;;;2.60;98296.40;;;;111163;1247;41149;-59
2022/02/09 07:49:23;;;;;;;33.30;15.50;;;;;2.60;98312.20;;;;111080;1247;42033;-59
2022/02/09 07:54:25;;;;;;;28.90;13.70;;;;;2.70;98316.40;;;;111148;1247;41147;-60
2022/02/09 07:56:54;;;;;;;29.20;13.30;;;;;2.70;98309.40;;;;111070;1246;41146;-60
2022/02/09 07:59:24;;;;;;;27.90;13.50;;;;;2.74;98309.20;;;;111124;1247;41154;-62
2022/02/09 08:01:54;;;;;;;33.80;14.60;;;;;2.70;98307.60;;;;111107;1246;41268;-59
2022/02/09 08:04:22;;;;;;;39.90;15.90;;;;;2.78;98318.60;;;;111121;1247;41133;-59
2022/02/09 08:06:52;;;;;;;30.00;12.90;;;;;2.80;98329.00;;;;111090;1246;41703;-59
2022/02/09 08:09:32;;;;;;;26.00;11.20;;;;;2.78;98327.20;;;;111061;1249;41703;-59
2022/02/09 08:20:31;;;;;;;22.00;10.50;;;;;2.70;98339.20;;;;111094;1248;41317;-59
2022/02/09 08:28:48;;;;;;;21.80;9.60;;;;;2.80;98353.00;;;;110933;1247;41487;-60
2022/02/09 08:33:51;;;;;;;23.40;9.90;;;;;2.92;98344.20;;;;110916;1249;41267;-62
2022/02/09 08:36:22;;;;;;;27.50;12.90;;;;;3.00;98354.20;;;;110926;1249;41822;-62
2022/02/09 08:38:53;;;;;;;30.70;14.70;;;;;3.02;98349.60;;;;110886;1249;41209;-61
2022/02/09 08:41:23;;;;;;;;;;;;;3.10;98345.60;;;;110977;1248;41514;-60
2022/02/09 08:43:57;;;;;;;27.90;13.40;;;;;3.10;98351.00;;;;111162;1246;41142;-58
2022/02/09 08:46:29;;;;;;;24.00;11.00;;;;;3.10;98347.40;;;;111007;1248;41219;-60
2022/02/09 08:49:00;;;;;;;18.90;8.90;;;;;3.10;98359.20;;;;110947;1249;41201;-62
2022/02/09 08:51:33;;;;;;;22.40;9.80;;;;;3.10;98365.80;;;;110788;1249;42279;-60
2022/02/09 08:54:05;;;;;;;22.40;10.10;;;;;3.10;98366.40;;;;111001;1248;41159;-60
2022/02/09 08:56:38;;;;;;;24.90;10.30;;;;;3.10;98373.00;;;;110751;1249;42493;-61
2022/02/09 08:59:09;;;;;;;22.30;9.40;;;;;3.18;98367.60;;;;111022;1246;41146;-61
2022/02/09 09:01:43;;;;;;;21.90;10.60;;;;;3.20;98366.60;;;;111103;1247;41183;-64
2022/02/09 09:04:22;;;;;;;24.20;11.50;;;;;3.20;98378.40;;;;110511;1248;825354;-59
2022/02/09 09:06:57;;;;;;;20.80;9.40;;;;;3.30;98374.80;;;;110912;1249;41606;-60
2022/02/09 09:42:22;;;;;;;15.40;5.80;;;;;3.90;98369.60;;;;110847;1249;42128;-61
2022/02/09 09:58:06;;;;;;;15.40;5.80;;;;;3.78;98372.40;;;;111208;1247;41142;-61
2022/02/09 10:03:36;;;;;;;13.30;5.80;;;;;3.74;98370.20;;;;110858;1249;42180;-59
2022/02/09 10:32:39;;;;;;;15.00;6.10;;;;;4.00;98379.60;;;;110976;1249;41164;-58
2022/02/09 10:35:39;;;;;;;19.60;6.50;;;;;4.10;98383.40;;;;110991;1248;41457;-60
2022/02/09 10:38:34;;;;;;;14.60;6.30;;;;;4.20;98384.20;;;;110866;1247;41289;-61
2022/02/09 10:41:10;;;;;;;12.50;5.60;;;;;4.12;98389.00;;;;110774;1249;41150;-61
2022/02/09 10:43:42;;;;;;;13.30;5.40;;;;;4.10;98391.20;;;;111157;1246;41156;-62
2022/02/09 10:46:22;;;;;;;12.80;5.60;;;;;4.10;98392.40;;;;110913;1247;41916;-61
2022/02/09 10:48:57;;;;;;;14.90;5.70;;;;;4.10;98393.80;;;;110883;1249;41335;-61
2022/02/09 10:54:13;;;;;;;12.80;5.40;;;;;4.30;98396.20;;;;111075;1248;40940;-59
2022/02/09 10:56:47;;;;;;;14.80;5.80;;;;;4.40;98395.00;;;;110994;1247;41605;-61
2022/02/09 10:59:26;;;;;;;14.40;5.30;;;;;4.50;98393.20;;;;110827;1250;43009;-60
2022/02/09 11:01:59;;;;;;;14.40;4.80;;;;;4.70;98392.20;;;;110774;1249;41614;-59
2022/02/09 11:04:29;;;;;;;12.20;5.10;;;;;4.90;98394.80;;;;111048;1247;41267;-60
2022/02/09 11:06:59;;;;;;;11.50;5.10;;;;;5.00;98390.20;;;;111060;1249;41613;-59
2022/02/09 11:09:29;;;;;;;16.90;5.70;;;;;5.10;98387.40;;;;111110;1248;41716;-60
2022/02/09 11:11:59;;;;;;;12.10;5.20;;;;;5.18;98391.40;;;;111069;1247;41537;-59
2022/02/09 11:14:28;;;;;;;13.60;6.10;;;;;5.20;98398.80;;;;111052;1247;41258;-60
2022/02/09 11:17:00;;;;;;;15.40;6.50;;;;;4.94;98398.60;;;;111098;1247;41607;-60
2022/02/09 11:19:38;;;;;;;16.30;6.50;;;;;4.88;98405.40;;;;111120;1248;41130;-60
2022/02/09 11:22:12;;;;;;;13.80;6.20;;;;;4.72;98403.00;;;;111107;1248;41206;-59
2022/02/09 11:24:44;;;;;;;14.10;8.00;;;;;4.90;98398.80;;;;111103;1247;42110;-59
2022/02/09 11:27:35;;;;;;;14.10;6.50;;;;;5.00;98395.40;;;;111096;1248;42294;-59
2022/02/09 11:30:28;;;;;;;13.60;6.10;;;;;4.98;98388.40;;;;111071;1247;41253;-60
2022/02/09 11:33:13;;;;;;;17.30;6.70;;;;;5.24;98391.60;;;;110837;1250;41150;-62
2022/02/09 11:36:03;;;;;;;14.30;6.00;;;;;4.84;98390.00;;;;110886;1248;41194;-61
2022/02/09 11:38:50;;;;;;;16.50;6.70;;;;;4.90;98382.20;;;;111146;1248;41258;-61
2022/02/09 11:41:34;;;;;;;18.20;7.20;;;;;5.06;98377.80;;;;111049;1249;41199;-62
2022/02/09 11:44:47;;;;;;;15.30;6.80;;;;;5.16;98377.80;;;;110938;1250;41260;-60
2022/02/09 11:48:07;;;;;;;;;;;;;5.58;98365.40;;;;110950;1250;41268;-60
2022/02/09 11:51:07;;;;;;;15.30;6.30;;;;;6.30;98356.40;;;;111150;1248;41614;-60
2022/02/09 11:56:56;;;;;;;16.80;6.20;;;;;7.00;98364.20;;;;111187;1247;41443;-59
2022/02/09 12:11:41;;;;;;;11.90;5.40;;;;;7.28;98363.20;;;;111129;1246;41249;-60
2022/02/09 12:15:43;;;;;;;10.50;5.00;;;;;7.30;98364.40;;;;111157;1248;41249;-63
2022/02/09 12:25:45;;;;;;;13.80;5.90;;;;;7.42;98362.40;;;;110785;1250;41606;-61
2022/02/09 12:28:18;;;;;;;13.20;5.20;;;;;7.12;98370.60;;;;111122;1247;41171;-62
2022/02/09 12:30:49;;;;;;;12.70;4.80;;;;;7.20;98368.40;;;;111159;1247;41318;-60
2022/02/09 12:33:19;;;;;;;;;;;;;7.22;98368.20;;;;110948;1248;41156;-59
2022/02/09 12:35:50;;;;;;;11.60;5.50;;;;;7.20;98372.80;;;;111117;1248;41689;-61
2022/02/09 12:38:28;;;;;;;13.10;6.20;;;;;7.16;98369.00;;;;110987;1249;42240;-60
2022/02/09 12:41:22;;;;;;;12.20;5.50;;;;;7.10;98364.20;;;;111115;1247;41255;-62
2022/02/09 12:44:01;;;;;;;13.30;5.70;;;;;7.10;98368.60;;;;110725;1249;41152;-62
2022/02/09 12:46:35;;;;;;;15.90;6.50;;;;;7.10;98377.60;;;;110983;1249;41254;-62
2022/02/09 12:49:09;;;;;;;13.80;6.20;;;;;7.10;98367.00;;;;111081;1248;41848;-61
2022/02/09 12:51:43;;;;;;;15.10;6.50;;;;;7.10;98366.20;;;;110699;1249;41154;-60
2022/02/09 12:54:17;;;;;;;13.50;6.60;;;;;7.20;98370.20;;;;110916;1251;41510;-62
2022/02/09 12:56:52;;;;;;;13.70;6.50;;;;;7.24;98368.20;;;;110921;1248;41162;-59
2022/02/09 12:59:22;;;;;;;13.50;6.20;;;;;7.20;98373.20;;;;111026;1249;41966;-62
2022/02/09 13:01:55;;;;;;;13.50;6.20;;;;;7.20;98369.20;;;;110785;1249;41916;-62
2022/02/09 13:04:39;;;;;;;12.80;5.90;;;;;7.20;98369.60;;;;110766;1248;41737;-60
2022/02/09 13:07:14;;;;;;;13.30;6.10;;;;;7.10;98374.40;;;;111057;1248;41862;-58
2022/02/09 13:09:51;;;;;;;13.40;5.30;;;;;7.10;98373.20;;;;110985;1249;41139;-58
2022/02/09 13:12:28;;;;;;;12.70;5.90;;;;;7.10;98374.20;;;;110981;1248;41204;-60
2022/02/09 13:15:19;;;;;;;14.00;5.90;;;;;7.10;98373.40;;;;110794;1249;42482;-60
2022/02/09 13:26:40;;;;;;;12.20;6.00;;;;;7.10;98377.60;;;;111054;1248;41172;-61
2022/02/09 14:10:20;;;;;;;16.40;7.80;;;;;6.90;98393.60;;;;110939;1249;41158;-59
2022/02/09 14:50:14;;;;;;;23.00;12.20;;;;;6.16;98417.80;;;;110392;1252;41402;-65
2022/02/09 14:52:31;;;;;;;45.10;22.50;;;;;6.00;98417.20;;;;110706;1251;41147;-65
2022/02/09 14:58:25;;;;;;;20.10;10.00;;;;;5.70;98429.80;;;;110288;1257;41604;-60
2022/02/09 15:01:12;;;;;;;21.00;10.60;;;;;5.60;98432.60;;;;110725;1253;40994;-66
2022/02/09 15:09:32;;;;;;;18.30;9.30;;;;;5.30;98453.80;;;;110773;1252;41151;-62
2022/02/09 15:12:42;;;;;;;22.20;11.00;;;;;5.20;98447.80;;;;110621;1251;41261;-65
2022/02/09 15:15:49;;;;;;;23.40;10.70;;;;;5.20;98442.00;;;;110445;1254;41165;-59
2022/02/09 15:22:00;;;;;;;25.90;11.50;;;;;5.16;98452.40;;;;110725;1253;41582;-60
2022/02/09 15:24:24;;;;;;;24.70;10.90;;;;;5.10;98448.60;;;;110593;1252;41192;-59
2022/02/09 15:26:59;;;;;;;22.60;9.60;;;;;5.02;98446.80;;;;110655;1253;41127;-61
2022/02/09 15:29:38;;;;;;;22.70;11.40;;;;;4.90;98450.40;;;;110567;1251;41161;-67
2022/02/09 15:32:23;;;;;;;22.80;11.00;;;;;4.98;98444.00;;;;110722;1251;40984;-65
2022/02/09 15:35:07;;;;;;;21.40;10.60;;;;;4.90;98448.00;;;;110617;1252;41136;-66
2022/02/09 15:37:49;;;;;;;26.90;13.50;;;;;4.90;98441.20;;;;110529;1251;41286;-68
2022/02/09 15:40:33;;;;;;;25.50;13.10;;;;;4.90;98443.00;;;;110563;1251;41134;-64
2022/02/09 16:09:25;;;;;;;25.90;12.80;;;;;4.60;98462.20;;;;110114;1257;41139;-61
2022/02/09 16:23:39;;;;;;;28.60;15.20;;;;;4.60;98467.20;;;;109675;1257;41163;-58
2022/02/09 16:33:12;;;;;;;27.80;13.70;;;;;4.60;98472.80;;;;110504;1254;41158;-64
2022/02/09 16:46:01;;;;;;;27.00;12.40;;;;;4.50;98491.40;;;;110616;1253;42575;-63
2022/02/09 16:48:32;;;;;;;22.10;11.30;;;;;4.48;98486.60;;;;110372;1254;41945;-61
2022/02/09 16:51:11;;;;;;;23.20;11.20;;;;;4.40;98485.80;;;;110618;1253;41208;-63
2022/02/09 16:54:01;;;;;;;24.80;10.80;;;;;4.40;98492.20;;;;110540;1254;41362;-64
2022/02/09 17:19:00;;;;;;;20.60;11.20;;;;;4.50;98491.00;;;;110589;1253;41229;-64
2022/02/09 17:21:32;;;;;;;19.90;10.20;;;;;4.50;98486.20;;;;110546;1254;41406;-66
2022/02/09 17:24:03;;;;;;;21.50;9.80;;;;;4.50;98491.80;;;;110614;1254;41363;-68
2022/02/09 17:26:32;;;;;;;16.30;8.90;;;;;4.52;98497.80;;;;110458;1254;41264;-64
2022/02/09 17:29:04;;;;;;;18.70;9.20;;;;;4.54;98495.40;;;;110462;1254;41238;-63
2022/02/09 17:34:42;;;;;;;19.70;8.70;;;;;4.60;98491.60;;;;110425;1254;41838;-60
2022/02/09 17:53:55;;;;;;;20.10;9.40;;;;;4.50;98497.60;;;;110513;1251;41609;-65
2022/02/09 17:56:27;;;;;;;21.30;10.10;;;;;4.50;98496.40;;;;110569;1251;41709;-64
2022/02/09 17:59:00;;;;;;;20.40;9.40;;;;;4.50;98500.00;;;;110678;1253;41613;-63
2022/02/09 18:01:30;;;;;;;19.90;8.90;;;;;4.50;98507.60;;;;110705;1251;41154;-63
2022/02/09 18:04:00;;;;;;;16.80;8.10;;;;;4.50;98508.40;;;;110692;1251;41678;-65
2022/02/09 18:06:32;;;;;;;14.50;7.60;;;;;4.50;98513.80;;;;110389;1251;41164;-60
2022/02/09 18:09:09;;;;;;;;;;;;;4.46;98513.20;;;;110574;1253;41407;-62
2022/02/09 18:11:55;;;;;;;15.00;7.30;;;;;4.40;98510.00;;;;110681;1251;41172;-65
2022/02/09 18:27:00;;;;;;;31.80;16.70;;;;;4.40;98512.80;;;;110453;1253;41932;-60
2022/02/09 18:45:25;;;;;;;31.60;15.50;;;;;4.30;98528.80;;;;110707;1251;42660;-64
2022/02/09 18:59:29;;;;;;;27.00;12.80;;;;;4.26;98532.00;;;;110545;1253;41143;-60
2022/02/09 19:02:11;;;;;;;28.50;13.10;;;;;4.30;98534.20;;;;110696;1251;41845;-60
2022/02/09 19:04:46;;;;;;;27.20;12.60;;;;;4.30;98537.40;;;;110536;1251;42036;-62
2022/02/09 19:07:52;;;;;;;23.80;12.90;;;;;4.24;98542.20;;;;110654;1251;41130;-62
2022/02/09 19:29:45;;;;;;;20.20;10.50;;;;;4.20;98537.00;;;;110692;1251;41298;-59
2022/02/09 19:48:38;;;;;;;24.60;11.50;;;;;4.20;98544.20;;;;110572;1251;41161;-64
2022/02/09 19:54:11;;;;;;;21.80;10.70;;;;;4.20;98537.80;;;;110547;1251;41165;-62
2022/02/09 19:56:47;;;;;;;25.80;12.00;;;;;4.14;98530.60;;;;110749;1251;42246;-64
2022/02/09 19:59:19;;;;;;;23.10;11.30;;;;;4.10;98532.40;;;;110587;1251;41275;-64
2022/02/09 20:01:49;;;;;;;26.30;11.90;;;;;4.10;98532.80;;;;110393;1254;42369;-65
2022/02/09 20:04:19;;;;;;;27.30;12.00;;;;;4.10;98528.80;;;;110608;1251;41253;-62
2022/02/09 20:06:49;;;;;;;25.10;11.10;;;;;4.10;98524.60;;;;110696;1251;42077;-64
2022/02/09 20:09:18;;;;;;;26.40;10.70;;;;;4.10;98521.80;;;;110719;1251;41152;-64
2022/02/09 20:11:47;;;;;;;23.70;11.30;;;;;4.10;98527.20;;;;110700;1252;41144;-63
2022/02/09 20:14:17;;;;;;;24.10;12.10;;;;;4.00;98531.00;;;;110556;1253;41715;-64
2022/02/09 20:16:47;;;;;;;23.80;11.20;;;;;4.00;98527.00;;;;110712;1250;41329;-64
2022/02/09 20:19:16;;;;;;;24.70;11.00;;;;;4.00;98530.80;;;;110704;1252;42577;-59
2022/02/09 20:21:45;;;;;;;24.20;11.70;;;;;4.00;98529.60;;;;110558;1253;41279;-58
2022/02/09 20:24:16;;;;;;;23.60;11.20;;;;;3.98;98526.60;;;;110416;1253;41169;-64
2022/02/09 20:26:46;;;;;;;21.60;11.50;;;;;3.90;98526.60;;;;110521;1253;41202;-61
2022/02/09 20:29:20;;;;;;;27.20;14.00;;;;;3.90;98529.80;;;;110520;1253;41236;-64
2022/02/09 20:32:46;;;;;;;29.00;14.50;;;;;3.90;98528.60;;;;110692;1251;41145;-64
2022/02/09 20:34:55;;;;;;;29.20;13.60;;;;;3.80;98534.80;;;;110601;1251;41717;-65
2022/02/09 20:37:26;;;;;;;;;;;;;3.80;98536.80;;;;110466;1251;41493;-65
2022/02/09 20:40:12;;;;;;;28.40;11.70;;;;;3.80;98528.60;;;;110507;1253;41436;-64
2022/02/09 20:42:50;;;;;;;23.60;11.70;;;;;3.70;98528.00;;;;110490;1253;41156;-65
2022/02/09 20:45:56;;;;;;;25.00;11.80;;;;;3.70;98526.00;;;;110598;1252;41376;-65
2022/02/09 20:48:16;;;;;;;28.20;13.00;;;;;3.70;98526.80;;;;110445;1253;42391;-60
2022/02/09 20:50:45;;;;;;;35.60;16.00;;;;;3.70;98519.40;;;;110487;1254;41253;-61
2022/02/09 20:53:15;;;;;;;35.60;15.40;;;;;3.70;98513.40;;;;110520;1254;41621;-63
2022/02/09 20:55:44;;;;;;;33.60;15.40;;;;;3.70;98517.80;;;;110581;1251;41488;-64
2022/02/09 20:58:14;;;;;;;34.30;15.70;;;;;3.66;98516.00;;;;110603;1250;41257;-63
2022/02/09 21:06:05;;;;;;;44.10;20.80;;;;;3.60;98527.20;;;;110777;1250;40758;-60
2022/02/09 21:11:24;;;;;;;45.20;22.60;;;;;3.60;98520.60;;;;110578;1251;41162;-66
2022/02/09 21:54:33;;;;;;;29.60;14.70;;;;;3.40;98525.00;;;;110618;1251;42106;-63
2022/02/09 21:57:16;;;;;;;27.30;12.80;;;;;3.30;98521.80;;;;110585;1253;41336;-63
2022/02/09 22:26:53;;;;;;;17.30;8.20;;;;;2.60;98525.60;;;;110666;1250;41251;-65
2022/02/09 22:49:16;;;;;;;30.20;13.50;;;;;2.20;98510.00;;;;110587;1253;41289;-63
2022/02/09 22:54:38;;;;;;;29.90;13.90;;;;;2.10;98509.60;;;;110698;1251;41183;-58
2022/02/09 22:57:09;;;;;;;34.40;15.50;;;;;2.04;98516.80;;;;110467;1253;41943;-58
2022/02/09 22:59:58;;;;;;;31.90;15.90;;;;;2.00;98514.20;;;;110623;1253;41200;-58
2022/02/09 23:02:34;;;;;;;33.30;15.40;;;;;1.90;98504.80;;;;110720;1252;42481;-58
2022/02/09 23:08:09;;;;;;;25.80;13.00;;;;;1.80;98507.40;;;;110579;1253;41157;-59
2022/02/09 23:11:39;;;;;;;25.30;12.10;;;;;1.80;98506.60;;;;110498;1253;41625;-64
2022/02/09 23:13:48;;;;;;;25.50;11.10;;;;;1.90;98502.40;;;;110634;1251;41270;-65
2022/02/09 23:20:12;;;;;;;25.40;12.90;;;;;1.98;98504.80;;;;110465;1254;41269;-59
